sensor_id;sensor_type;location;lat;lon;timestamp;P1;durP1;ratioP1;P2;durP2;ratioP2
18505;SDS011;9382;53.242;10.438;2023-07-20T00:02:07;6.37;;;5.80;;
18505;SDS011;9382;53.242;10.438;2023-07-20T00:04:34;7.60;;;5.40;;
18505;SDS011;9382;53.242;10.438;2023-07-20T00:07:03;7.13;;;5.43;;
18505;SDS011;9382;53.242;10.438;2023-07-20T00:09:30;6.07;;;5.47;;
18505;SDS011;9382;53.242;10.438;2023-07-20T00:11:57;8.03;;;5.23;;
18505;SDS011;9382;53.242;10.438;2023-07-20T00:14:26;5.83;;;5.20;;
18505;SDS011;9382;53.242;10.438;2023-07-20T00:16:54;6.87;;;4.90;;
18505;SDS011;9382;53.242;10.438;2023-07-20T00:19:22;5.17;;;4.70;;
18505;SDS011;9382;53.242;10.438;2023-07-20T00:21:49;8.30;;;5.40;;
18505;SDS011;9382;53.242;10.438;2023-07-20T00:24:16;6.73;;;5.03;;
18505;SDS011;9382;53.242;10.438;2023-07-20T00:26:43;6.10;;;5.50;;
18505;SDS011;9382;53.242;10.438;2023-07-20T00:29:10;9.10;;;4.73;;
18505;SDS011;9382;53.242;10.438;2023-07-20T00:31:38;6.73;;;5.27;;
18505;SDS011;9382;53.242;10.438;2023-07-20T00:34:04;5.27;;;4.77;;
18505;SDS011;9382;53.242;10.438;2023-07-20T00:36:32;7.87;;;5.23;;
18505;SDS011;9382;53.242;10.438;2023-07-20T00:38:59;6.50;;;5.00;;
18505;SDS011;9382;53.242;10.438;2023-07-20T00:41:25;7.77;;;4.83;;
18505;SDS011;9382;53.242;10.438;2023-07-20T00:43:54;7.37;;;4.90;;
18505;SDS011;9382;53.242;10.438;2023-07-20T00:46:21;7.30;;;5.27;;
18505;SDS011;9382;53.242;10.438;2023-07-20T00:48:50;6.20;;;4.80;;
18505;SDS011;9382;53.242;10.438;2023-07-20T00:51:18;6.50;;;5.10;;
18505;SDS011;9382;53.242;10.438;2023-07-20T00:53:45;5.07;;;4.60;;
18505;SDS011;9382;53.242;10.438;2023-07-20T00:56:13;5.30;;;4.80;;
18505;SDS011;9382;53.242;10.438;2023-07-20T00:58:40;4.90;;;4.50;;
18505;SDS011;9382;53.242;10.438;2023-07-20T01:01:07;6.57;;;5.00;;
18505;SDS011;9382;53.242;10.438;2023-07-20T01:03:34;8.53;;;5.00;;
18505;SDS011;9382;53.242;10.438;2023-07-20T01:06:04;5.47;;;4.97;;
18505;SDS011;9382;53.242;10.438;2023-07-20T01:08:43;6.17;;;5.10;;
18505;SDS011;9382;53.242;10.438;2023-07-20T01:11:16;6.50;;;5.37;;
18505;SDS011;9382;53.242;10.438;2023-07-20T01:13:48;6.07;;;5.10;;
18505;SDS011;9382;53.242;10.438;2023-07-20T01:16:16;8.80;;;5.43;;
18505;SDS011;9382;53.242;10.438;2023-07-20T01:18:43;6.13;;;4.90;;
18505;SDS011;9382;53.242;10.438;2023-07-20T01:21:12;8.07;;;5.40;;
18505;SDS011;9382;53.242;10.438;2023-07-20T01:23:50;7.17;;;5.10;;
18505;SDS011;9382;53.242;10.438;2023-07-20T01:26:50;7.90;;;4.70;;
18505;SDS011;9382;53.242;10.438;2023-07-20T01:29:41;6.83;;;5.10;;
18505;SDS011;9382;53.242;10.438;2023-07-20T01:32:33;7.07;;;5.17;;
18505;SDS011;9382;53.242;10.438;2023-07-20T01:35:02;6.07;;;5.17;;
18505;SDS011;9382;53.242;10.438;2023-07-20T01:37:31;5.87;;;4.70;;
18505;SDS011;9382;53.242;10.438;2023-07-20T01:40:00;5.57;;;5.00;;
18505;SDS011;9382;53.242;10.438;2023-07-20T01:42:27;9.40;;;5.60;;
18505;SDS011;9382;53.242;10.438;2023-07-20T01:44:54;6.03;;;4.93;;
18505;SDS011;9382;53.242;10.438;2023-07-20T01:47:21;7.30;;;5.33;;
18505;SDS011;9382;53.242;10.438;2023-07-20T01:49:49;8.97;;;5.00;;
18505;SDS011;9382;53.242;10.438;2023-07-20T01:52:16;7.83;;;5.10;;
18505;SDS011;9382;53.242;10.438;2023-07-20T01:54:42;7.63;;;4.73;;
18505;SDS011;9382;53.242;10.438;2023-07-20T01:57:09;6.23;;;4.90;;
18505;SDS011;9382;53.242;10.438;2023-07-20T01:59:36;8.03;;;5.23;;
18505;SDS011;9382;53.242;10.438;2023-07-20T02:02:03;6.47;;;4.77;;
18505;SDS011;9382;53.242;10.438;2023-07-20T02:04:29;6.37;;;4.60;;
18505;SDS011;9382;53.242;10.438;2023-07-20T02:06:57;5.27;;;4.77;;
18505;SDS011;9382;53.242;10.438;2023-07-20T02:09:24;7.27;;;4.73;;
18505;SDS011;9382;53.242;10.438;2023-07-20T02:11:51;7.37;;;4.93;;
18505;SDS011;9382;53.242;10.438;2023-07-20T02:14:18;5.90;;;4.60;;
18505;SDS011;9382;53.242;10.438;2023-07-20T02:16:44;9.60;;;4.90;;
18505;SDS011;9382;53.242;10.438;2023-07-20T02:19:12;5.27;;;4.50;;
18505;SDS011;9382;53.242;10.438;2023-07-20T02:21:40;6.37;;;4.90;;
18505;SDS011;9382;53.242;10.438;2023-07-20T02:24:08;9.17;;;5.10;;
18505;SDS011;9382;53.242;10.438;2023-07-20T02:26:35;5.67;;;5.03;;
18505;SDS011;9382;53.242;10.438;2023-07-20T02:29:02;11.93;;;5.50;;
18505;SDS011;9382;53.242;10.438;2023-07-20T02:31:29;7.47;;;5.20;;
18505;SDS011;9382;53.242;10.438;2023-07-20T02:33:56;7.67;;;5.17;;
18505;SDS011;9382;53.242;10.438;2023-07-20T02:36:23;5.43;;;4.93;;
18505;SDS011;9382;53.242;10.438;2023-07-20T02:38:50;6.57;;;4.73;;
18505;SDS011;9382;53.242;10.438;2023-07-20T02:41:18;10.03;;;5.50;;
18505;SDS011;9382;53.242;10.438;2023-07-20T02:43:45;8.37;;;5.30;;
18505;SDS011;9382;53.242;10.438;2023-07-20T02:46:12;6.47;;;5.50;;
18505;SDS011;9382;53.242;10.438;2023-07-20T02:48:38;9.40;;;5.37;;
18505;SDS011;9382;53.242;10.438;2023-07-20T02:51:05;7.37;;;5.47;;
18505;SDS011;9382;53.242;10.438;2023-07-20T02:53:32;6.63;;;5.43;;
18505;SDS011;9382;53.242;10.438;2023-07-20T02:55:59;8.90;;;5.70;;
18505;SDS011;9382;53.242;10.438;2023-07-20T02:58:27;7.37;;;5.77;;
18505;SDS011;9382;53.242;10.438;2023-07-20T03:00:54;8.50;;;5.80;;
18505;SDS011;9382;53.242;10.438;2023-07-20T03:03:21;9.10;;;5.90;;
18505;SDS011;9382;53.242;10.438;2023-07-20T03:05:48;8.70;;;6.17;;
18505;SDS011;9382;53.242;10.438;2023-07-20T03:08:20;11.17;;;5.90;;
18505;SDS011;9382;53.242;10.438;2023-07-20T03:10:47;11.73;;;6.73;;
18505;SDS011;9382;53.242;10.438;2023-07-20T03:13:14;8.40;;;6.43;;
18505;SDS011;9382;53.242;10.438;2023-07-20T03:15:42;10.73;;;6.57;;
18505;SDS011;9382;53.242;10.438;2023-07-20T03:18:09;10.90;;;6.57;;
18505;SDS011;9382;53.242;10.438;2023-07-20T03:20:36;9.17;;;6.53;;
18505;SDS011;9382;53.242;10.438;2023-07-20T03:23:03;11.40;;;7.00;;
18505;SDS011;9382;53.242;10.438;2023-07-20T03:25:29;10.47;;;7.23;;
18505;SDS011;9382;53.242;10.438;2023-07-20T03:27:56;9.67;;;6.53;;
18505;SDS011;9382;53.242;10.438;2023-07-20T03:30:23;8.03;;;6.00;;
18505;SDS011;9382;53.242;10.438;2023-07-20T03:32:52;8.00;;;5.67;;
18505;SDS011;9382;53.242;10.438;2023-07-20T03:35:18;8.80;;;5.57;;
18505;SDS011;9382;53.242;10.438;2023-07-20T03:37:45;8.60;;;5.27;;
18505;SDS011;9382;53.242;10.438;2023-07-20T03:40:12;5.90;;;5.30;;
18505;SDS011;9382;53.242;10.438;2023-07-20T03:42:39;5.60;;;4.50;;
18505;SDS011;9382;53.242;10.438;2023-07-20T03:45:07;9.13;;;4.97;;
18505;SDS011;9382;53.242;10.438;2023-07-20T03:47:34;4.53;;;4.10;;
18505;SDS011;9382;53.242;10.438;2023-07-20T03:50:02;7.07;;;4.63;;
18505;SDS011;9382;53.242;10.438;2023-07-20T03:52:30;4.73;;;3.83;;
18505;SDS011;9382;53.242;10.438;2023-07-20T03:54:57;4.67;;;4.13;;
18505;SDS011;9382;53.242;10.438;2023-07-20T03:57:24;5.43;;;3.60;;
18505;SDS011;9382;53.242;10.438;2023-07-20T03:59:51;5.27;;;4.10;;
18505;SDS011;9382;53.242;10.438;2023-07-20T04:02:17;4.23;;;3.73;;
18505;SDS011;9382;53.242;10.438;2023-07-20T04:04:44;4.03;;;3.30;;
18505;SDS011;9382;53.242;10.438;2023-07-20T04:07:12;4.40;;;3.40;;
18505;SDS011;9382;53.242;10.438;2023-07-20T04:09:39;6.03;;;3.27;;
18505;SDS011;9382;53.242;10.438;2023-07-20T04:12:07;4.23;;;3.37;;
18505;SDS011;9382;53.242;10.438;2023-07-20T04:14:34;3.43;;;3.13;;
18505;SDS011;9382;53.242;10.438;2023-07-20T04:17:00;4.30;;;3.40;;
18505;SDS011;9382;53.242;10.438;2023-07-20T04:19:28;4.57;;;3.17;;
18505;SDS011;9382;53.242;10.438;2023-07-20T04:21:55;3.23;;;2.77;;
18505;SDS011;9382;53.242;10.438;2023-07-20T04:24:23;3.30;;;3.00;;
18505;SDS011;9382;53.242;10.438;2023-07-20T04:26:50;5.50;;;2.93;;
18505;SDS011;9382;53.242;10.438;2023-07-20T04:29:17;3.17;;;2.83;;
18505;SDS011;9382;53.242;10.438;2023-07-20T04:31:43;3.70;;;2.70;;
18505;SDS011;9382;53.242;10.438;2023-07-20T04:34:10;5.73;;;2.90;;
18505;SDS011;9382;53.242;10.438;2023-07-20T04:36:37;2.73;;;2.53;;
18505;SDS011;9382;53.242;10.438;2023-07-20T04:39:04;3.43;;;2.43;;
18505;SDS011;9382;53.242;10.438;2023-07-20T04:41:32;2.70;;;2.50;;
18505;SDS011;9382;53.242;10.438;2023-07-20T04:43:59;3.93;;;2.47;;
18505;SDS011;9382;53.242;10.438;2023-07-20T04:46:26;4.00;;;2.60;;
18505;SDS011;9382;53.242;10.438;2023-07-20T04:48:53;5.67;;;2.80;;
18505;SDS011;9382;53.242;10.438;2023-07-20T04:51:19;3.03;;;2.70;;
18505;SDS011;9382;53.242;10.438;2023-07-20T04:53:47;2.83;;;2.60;;
18505;SDS011;9382;53.242;10.438;2023-07-20T04:56:14;2.73;;;2.53;;
18505;SDS011;9382;53.242;10.438;2023-07-20T04:58:42;2.60;;;2.43;;
18505;SDS011;9382;53.242;10.438;2023-07-20T05:01:10;3.30;;;2.73;;
18505;SDS011;9382;53.242;10.438;2023-07-20T05:03:37;5.00;;;2.60;;
18505;SDS011;9382;53.242;10.438;2023-07-20T05:06:03;3.03;;;2.57;;
18505;SDS011;9382;53.242;10.438;2023-07-20T05:08:30;2.97;;;2.57;;
18505;SDS011;9382;53.242;10.438;2023-07-20T05:10:57;3.83;;;2.77;;
18505;SDS011;9382;53.242;10.438;2023-07-20T05:13:25;4.67;;;3.00;;
18505;SDS011;9382;53.242;10.438;2023-07-20T05:15:53;3.43;;;2.80;;
18505;SDS011;9382;53.242;10.438;2023-07-20T05:18:20;3.23;;;2.93;;
18505;SDS011;9382;53.242;10.438;2023-07-20T05:20:47;3.20;;;3.00;;
18505;SDS011;9382;53.242;10.438;2023-07-20T05:23:14;3.50;;;3.20;;
18505;SDS011;9382;53.242;10.438;2023-07-20T05:25:45;4.27;;;3.57;;
18505;SDS011;9382;53.242;10.438;2023-07-20T05:28:12;3.83;;;3.53;;
18505;SDS011;9382;53.242;10.438;2023-07-20T05:30:39;3.53;;;3.20;;
18505;SDS011;9382;53.242;10.438;2023-07-20T05:33:07;6.43;;;3.77;;
18505;SDS011;9382;53.242;10.438;2023-07-20T05:35:35;4.43;;;3.50;;
18505;SDS011;9382;53.242;10.438;2023-07-20T05:38:02;3.83;;;3.53;;
18505;SDS011;9382;53.242;10.438;2023-07-20T05:40:31;3.40;;;3.10;;
18505;SDS011;9382;53.242;10.438;2023-07-20T05:42:58;3.43;;;3.23;;
18505;SDS011;9382;53.242;10.438;2023-07-20T05:45:25;3.77;;;3.47;;
18505;SDS011;9382;53.242;10.438;2023-07-20T05:47:52;3.80;;;3.30;;
18505;SDS011;9382;53.242;10.438;2023-07-20T05:50:20;4.00;;;2.93;;
18505;SDS011;9382;53.242;10.438;2023-07-20T05:52:47;2.90;;;2.70;;
18505;SDS011;9382;53.242;10.438;2023-07-20T05:55:14;3.80;;;2.90;;
18505;SDS011;9382;53.242;10.438;2023-07-20T05:57:41;4.77;;;3.17;;
18505;SDS011;9382;53.242;10.438;2023-07-20T06:00:08;3.57;;;2.93;;
18505;SDS011;9382;53.242;10.438;2023-07-20T06:02:37;3.77;;;2.97;;
18505;SDS011;9382;53.242;10.438;2023-07-20T06:05:04;6.60;;;2.73;;
18505;SDS011;9382;53.242;10.438;2023-07-20T06:07:35;2.43;;;2.30;;
18505;SDS011;9382;53.242;10.438;2023-07-20T06:10:02;2.40;;;2.30;;
18505;SDS011;9382;53.242;10.438;2023-07-20T06:12:30;2.20;;;1.90;;
18505;SDS011;9382;53.242;10.438;2023-07-20T06:14:57;3.20;;;2.13;;
18505;SDS011;9382;53.242;10.438;2023-07-20T06:17:27;2.00;;;1.90;;
18505;SDS011;9382;53.242;10.438;2023-07-20T06:19:54;1.70;;;1.60;;
18505;SDS011;9382;53.242;10.438;2023-07-20T06:22:21;3.53;;;2.10;;
18505;SDS011;9382;53.242;10.438;2023-07-20T06:24:49;1.83;;;1.73;;
18505;SDS011;9382;53.242;10.438;2023-07-20T06:27:16;1.70;;;1.60;;
18505;SDS011;9382;53.242;10.438;2023-07-20T06:29:43;2.13;;;1.60;;
18505;SDS011;9382;53.242;10.438;2023-07-20T06:32:09;1.80;;;1.70;;
18505;SDS011;9382;53.242;10.438;2023-07-20T06:34:36;2.10;;;1.67;;
18505;SDS011;9382;53.242;10.438;2023-07-20T06:37:03;1.73;;;1.70;;
18505;SDS011;9382;53.242;10.438;2023-07-20T06:39:30;3.77;;;2.00;;
18505;SDS011;9382;53.242;10.438;2023-07-20T06:41:58;2.17;;;2.00;;
18505;SDS011;9382;53.242;10.438;2023-07-20T06:44:25;3.53;;;2.50;;
18505;SDS011;9382;53.242;10.438;2023-07-20T06:46:52;2.70;;;2.50;;
18505;SDS011;9382;53.242;10.438;2023-07-20T06:49:25;3.97;;;2.30;;
18505;SDS011;9382;53.242;10.438;2023-07-20T06:51:52;2.17;;;2.07;;
18505;SDS011;9382;53.242;10.438;2023-07-20T06:54:19;2.37;;;2.23;;
18505;SDS011;9382;53.242;10.438;2023-07-20T06:56:46;2.03;;;1.93;;
18505;SDS011;9382;53.242;10.438;2023-07-20T06:59:14;2.67;;;2.47;;
18505;SDS011;9382;53.242;10.438;2023-07-20T07:01:41;2.97;;;2.27;;
18505;SDS011;9382;53.242;10.438;2023-07-20T07:04:08;3.43;;;2.43;;
18505;SDS011;9382;53.242;10.438;2023-07-20T07:06:35;2.80;;;2.60;;
18505;SDS011;9382;53.242;10.438;2023-07-20T07:09:02;2.40;;;2.20;;
18505;SDS011;9382;53.242;10.438;2023-07-20T07:11:30;2.50;;;2.30;;
18505;SDS011;9382;53.242;10.438;2023-07-20T07:13:57;2.33;;;2.13;;
18505;SDS011;9382;53.242;10.438;2023-07-20T07:16:25;2.67;;;2.57;;
18505;SDS011;9382;53.242;10.438;2023-07-20T07:18:51;2.23;;;1.90;;
18505;SDS011;9382;53.242;10.438;2023-07-20T07:21:18;2.20;;;1.80;;
18505;SDS011;9382;53.242;10.438;2023-07-20T07:23:46;3.40;;;1.77;;
18505;SDS011;9382;53.242;10.438;2023-07-20T07:26:13;3.50;;;2.00;;
18505;SDS011;9382;53.242;10.438;2023-07-20T07:28:40;2.03;;;1.60;;
18505;SDS011;9382;53.242;10.438;2023-07-20T07:31:07;2.90;;;1.80;;
18505;SDS011;9382;53.242;10.438;2023-07-20T07:33:35;4.43;;;1.40;;
18505;SDS011;9382;53.242;10.438;2023-07-20T07:36:02;1.80;;;1.50;;
18505;SDS011;9382;53.242;10.438;2023-07-20T07:38:29;2.90;;;1.50;;
18505;SDS011;9382;53.242;10.438;2023-07-20T07:40:55;1.90;;;1.70;;
18505;SDS011;9382;53.242;10.438;2023-07-20T07:43:22;1.70;;;1.60;;
18505;SDS011;9382;53.242;10.438;2023-07-20T07:45:49;1.90;;;1.50;;
18505;SDS011;9382;53.242;10.438;2023-07-20T07:48:16;2.17;;;1.60;;
18505;SDS011;9382;53.242;10.438;2023-07-20T07:50:44;2.80;;;1.47;;
18505;SDS011;9382;53.242;10.438;2023-07-20T07:53:11;2.23;;;1.40;;
18505;SDS011;9382;53.242;10.438;2023-07-20T07:55:38;1.60;;;1.50;;
18505;SDS011;9382;53.242;10.438;2023-07-20T07:58:05;1.80;;;1.70;;
18505;SDS011;9382;53.242;10.438;2023-07-20T08:00:32;1.40;;;1.30;;
18505;SDS011;9382;53.242;10.438;2023-07-20T08:02:59;1.87;;;1.57;;
18505;SDS011;9382;53.242;10.438;2023-07-20T08:05:26;2.70;;;1.37;;
18505;SDS011;9382;53.242;10.438;2023-07-20T08:07:54;2.27;;;1.50;;
18505;SDS011;9382;53.242;10.438;2023-07-20T08:10:21;2.97;;;1.50;;
18505;SDS011;9382;53.242;10.438;2023-07-20T08:12:48;1.33;;;1.33;;
18505;SDS011;9382;53.242;10.438;2023-07-20T08:15:15;1.40;;;1.30;;
18505;SDS011;9382;53.242;10.438;2023-07-20T08:17:42;2.77;;;1.20;;
18505;SDS011;9382;53.242;10.438;2023-07-20T08:20:09;1.83;;;1.20;;
18505;SDS011;9382;53.242;10.438;2023-07-20T08:22:37;3.33;;;1.40;;
18505;SDS011;9382;53.242;10.438;2023-07-20T08:25:06;1.30;;;1.20;;
18505;SDS011;9382;53.242;10.438;2023-07-20T08:27:33;2.73;;;1.27;;
18505;SDS011;9382;53.242;10.438;2023-07-20T08:30:00;1.97;;;1.40;;
18505;SDS011;9382;53.242;10.438;2023-07-20T08:32:27;2.23;;;1.20;;
18505;SDS011;9382;53.242;10.438;2023-07-20T08:34:54;2.60;;;1.13;;
18505;SDS011;9382;53.242;10.438;2023-07-20T08:37:22;1.37;;;1.27;;
18505;SDS011;9382;53.242;10.438;2023-07-20T08:39:49;2.10;;;1.10;;
18505;SDS011;9382;53.242;10.438;2023-07-20T08:42:17;1.87;;;1.40;;
18505;SDS011;9382;53.242;10.438;2023-07-20T08:44:43;3.80;;;1.27;;
18505;SDS011;9382;53.242;10.438;2023-07-20T08:47:13;2.97;;;1.43;;
18505;SDS011;9382;53.242;10.438;2023-07-20T08:49:42;3.70;;;1.30;;
18505;SDS011;9382;53.242;10.438;2023-07-20T08:52:09;2.13;;;1.47;;
18505;SDS011;9382;53.242;10.438;2023-07-20T08:54:36;1.20;;;1.20;;
18505;SDS011;9382;53.242;10.438;2023-07-20T08:57:04;4.53;;;1.40;;
18505;SDS011;9382;53.242;10.438;2023-07-20T08:59:33;2.07;;;1.23;;
18505;SDS011;9382;53.242;10.438;2023-07-20T09:02:02;2.13;;;1.30;;
18505;SDS011;9382;53.242;10.438;2023-07-20T09:04:31;2.83;;;1.20;;
18505;SDS011;9382;53.242;10.438;2023-07-20T09:06:58;2.43;;;1.20;;
18505;SDS011;9382;53.242;10.438;2023-07-20T09:09:25;1.97;;;1.40;;
18505;SDS011;9382;53.242;10.438;2023-07-20T09:11:52;2.93;;;1.40;;
18505;SDS011;9382;53.242;10.438;2023-07-20T09:14:18;1.33;;;1.27;;
18505;SDS011;9382;53.242;10.438;2023-07-20T09:16:51;2.90;;;1.50;;
18505;SDS011;9382;53.242;10.438;2023-07-20T09:19:19;1.43;;;1.30;;
18505;SDS011;9382;53.242;10.438;2023-07-20T09:21:47;2.47;;;1.30;;
18505;SDS011;9382;53.242;10.438;2023-07-20T09:24:15;2.33;;;1.30;;
18505;SDS011;9382;53.242;10.438;2023-07-20T09:26:44;1.57;;;1.23;;
18505;SDS011;9382;53.242;10.438;2023-07-20T09:29:13;1.20;;;1.10;;
18505;SDS011;9382;53.242;10.438;2023-07-20T09:31:40;1.37;;;1.27;;
18505;SDS011;9382;53.242;10.438;2023-07-20T09:34:09;1.20;;;1.13;;
18505;SDS011;9382;53.242;10.438;2023-07-20T09:36:36;1.90;;;1.20;;
18505;SDS011;9382;53.242;10.438;2023-07-20T09:39:03;2.10;;;1.37;;
18505;SDS011;9382;53.242;10.438;2023-07-20T09:41:39;1.43;;;1.00;;
18505;SDS011;9382;53.242;10.438;2023-07-20T09:44:07;1.57;;;1.20;;
18505;SDS011;9382;53.242;10.438;2023-07-20T09:46:42;2.47;;;1.00;;
18505;SDS011;9382;53.242;10.438;2023-07-20T09:49:12;1.77;;;1.20;;
18505;SDS011;9382;53.242;10.438;2023-07-20T09:51:39;1.10;;;1.10;;
18505;SDS011;9382;53.242;10.438;2023-07-20T09:54:07;1.93;;;1.30;;
18505;SDS011;9382;53.242;10.438;2023-07-20T09:56:34;1.50;;;1.20;;
18505;SDS011;9382;53.242;10.438;2023-07-20T09:59:01;2.30;;;1.50;;
18505;SDS011;9382;53.242;10.438;2023-07-20T10:01:28;2.13;;;1.60;;
18505;SDS011;9382;53.242;10.438;2023-07-20T10:03:57;6.20;;;1.80;;
18505;SDS011;9382;53.242;10.438;2023-07-20T10:06:28;2.77;;;1.80;;
18505;SDS011;9382;53.242;10.438;2023-07-20T10:08:55;3.70;;;1.80;;
18505;SDS011;9382;53.242;10.438;2023-07-20T10:11:28;3.83;;;2.20;;
18505;SDS011;9382;53.242;10.438;2023-07-20T10:13:58;3.10;;;2.10;;
18505;SDS011;9382;53.242;10.438;2023-07-20T10:16:28;2.37;;;2.07;;
18505;SDS011;9382;53.242;10.438;2023-07-20T10:18:59;2.37;;;1.90;;
18505;SDS011;9382;53.242;10.438;2023-07-20T10:21:32;3.53;;;2.20;;
18505;SDS011;9382;53.242;10.438;2023-07-20T10:24:01;3.07;;;1.90;;
18505;SDS011;9382;53.242;10.438;2023-07-20T10:26:30;2.70;;;1.90;;
18505;SDS011;9382;53.242;10.438;2023-07-20T10:28:56;3.23;;;1.90;;
18505;SDS011;9382;53.242;10.438;2023-07-20T10:31:25;2.07;;;1.70;;
18505;SDS011;9382;53.242;10.438;2023-07-20T10:33:54;3.10;;;1.87;;
18505;SDS011;9382;53.242;10.438;2023-07-20T10:36:24;4.10;;;1.97;;
18505;SDS011;9382;53.242;10.438;2023-07-20T10:38:53;2.67;;;1.77;;
18505;SDS011;9382;53.242;10.438;2023-07-20T10:41:22;1.87;;;1.50;;
18505;SDS011;9382;53.242;10.438;2023-07-20T10:43:57;1.90;;;1.33;;
18505;SDS011;9382;53.242;10.438;2023-07-20T10:46:33;2.87;;;1.60;;
18505;SDS011;9382;53.242;10.438;2023-07-20T10:49:01;1.73;;;1.63;;
18505;SDS011;9382;53.242;10.438;2023-07-20T10:51:29;3.13;;;1.70;;
18505;SDS011;9382;53.242;10.438;2023-07-20T10:53:58;2.77;;;1.60;;
18505;SDS011;9382;53.242;10.438;2023-07-20T10:56:28;1.67;;;1.30;;
18505;SDS011;9382;53.242;10.438;2023-07-20T10:58:55;1.40;;;1.30;;
18505;SDS011;9382;53.242;10.438;2023-07-20T11:01:27;1.93;;;1.50;;
18505;SDS011;9382;53.242;10.438;2023-07-20T11:03:57;5.00;;;1.50;;
18505;SDS011;9382;53.242;10.438;2023-07-20T11:06:31;2.23;;;1.50;;
18505;SDS011;9382;53.242;10.438;2023-07-20T11:09:05;1.97;;;1.77;;
18505;SDS011;9382;53.242;10.438;2023-07-20T11:11:36;3.43;;;1.90;;
18505;SDS011;9382;53.242;10.438;2023-07-20T11:14:04;2.90;;;1.60;;
18505;SDS011;9382;53.242;10.438;2023-07-20T11:16:33;2.80;;;1.50;;
18505;SDS011;9382;53.242;10.438;2023-07-20T11:19:04;2.50;;;1.80;;
18505;SDS011;9382;53.242;10.438;2023-07-20T11:21:35;3.10;;;1.83;;
18505;SDS011;9382;53.242;10.438;2023-07-20T11:24:06;2.27;;;1.70;;
18505;SDS011;9382;53.242;10.438;2023-07-20T11:26:43;2.07;;;1.57;;
18505;SDS011;9382;53.242;10.438;2023-07-20T11:29:11;2.50;;;1.60;;
18505;SDS011;9382;53.242;10.438;2023-07-20T11:31:38;2.40;;;1.70;;
18505;SDS011;9382;53.242;10.438;2023-07-20T11:34:07;2.03;;;1.30;;
18505;SDS011;9382;53.242;10.438;2023-07-20T11:36:36;1.80;;;1.70;;
18505;SDS011;9382;53.242;10.438;2023-07-20T11:39:03;1.67;;;1.30;;
18505;SDS011;9382;53.242;10.438;2023-07-20T11:41:31;2.70;;;1.40;;
18505;SDS011;9382;53.242;10.438;2023-07-20T11:43:58;1.50;;;1.40;;
18505;SDS011;9382;53.242;10.438;2023-07-20T11:46:25;1.03;;;0.93;;
18505;SDS011;9382;53.242;10.438;2023-07-20T11:48:57;1.57;;;1.30;;
18505;SDS011;9382;53.242;10.438;2023-07-20T11:51:25;1.30;;;1.20;;
18505;SDS011;9382;53.242;10.438;2023-07-20T11:53:53;1.20;;;1.10;;
18505;SDS011;9382;53.242;10.438;2023-07-20T11:56:20;2.80;;;1.33;;
18505;SDS011;9382;53.242;10.438;2023-07-20T11:58:50;2.03;;;1.03;;
18505;SDS011;9382;53.242;10.438;2023-07-20T12:01:21;1.23;;;1.10;;
18505;SDS011;9382;53.242;10.438;2023-07-20T12:03:49;3.03;;;1.20;;
18505;SDS011;9382;53.242;10.438;2023-07-20T12:06:16;1.53;;;1.10;;
18505;SDS011;9382;53.242;10.438;2023-07-20T12:08:43;2.03;;;1.30;;
18505;SDS011;9382;53.242;10.438;2023-07-20T12:11:10;2.00;;;1.07;;
18505;SDS011;9382;53.242;10.438;2023-07-20T12:13:37;3.33;;;1.10;;
18505;SDS011;9382;53.242;10.438;2023-07-20T12:16:13;2.80;;;1.20;;
18505;SDS011;9382;53.242;10.438;2023-07-20T12:18:42;1.53;;;1.10;;
18505;SDS011;9382;53.242;10.438;2023-07-20T12:21:09;2.20;;;1.10;;
18505;SDS011;9382;53.242;10.438;2023-07-20T12:23:37;1.37;;;1.00;;
18505;SDS011;9382;53.242;10.438;2023-07-20T12:26:08;0.90;;;0.90;;
18505;SDS011;9382;53.242;10.438;2023-07-20T12:28:36;0.93;;;0.80;;
18505;SDS011;9382;53.242;10.438;2023-07-20T12:31:06;2.80;;;1.00;;
18505;SDS011;9382;53.242;10.438;2023-07-20T12:33:36;2.07;;;0.90;;
18505;SDS011;9382;53.242;10.438;2023-07-20T12:36:03;1.23;;;1.00;;
18505;SDS011;9382;53.242;10.438;2023-07-20T12:38:31;0.90;;;0.90;;
18505;SDS011;9382;53.242;10.438;2023-07-20T12:40:58;2.63;;;1.20;;
18505;SDS011;9382;53.242;10.438;2023-07-20T12:43:26;1.90;;;1.10;;
18505;SDS011;9382;53.242;10.438;2023-07-20T12:45:53;1.93;;;1.00;;
18505;SDS011;9382;53.242;10.438;2023-07-20T12:48:20;1.40;;;1.30;;
18505;SDS011;9382;53.242;10.438;2023-07-20T12:50:48;1.63;;;1.00;;
18505;SDS011;9382;53.242;10.438;2023-07-20T12:53:15;2.00;;;1.20;;
18505;SDS011;9382;53.242;10.438;2023-07-20T12:55:42;2.17;;;0.93;;
18505;SDS011;9382;53.242;10.438;2023-07-20T12:58:09;2.87;;;1.20;;
18505;SDS011;9382;53.242;10.438;2023-07-20T13:00:38;2.40;;;1.37;;
18505;SDS011;9382;53.242;10.438;2023-07-20T13:03:04;1.40;;;1.10;;
18505;SDS011;9382;53.242;10.438;2023-07-20T13:05:32;1.70;;;1.17;;
18505;SDS011;9382;53.242;10.438;2023-07-20T13:08:01;5.70;;;1.10;;
18505;SDS011;9382;53.242;10.438;2023-07-20T13:10:28;1.50;;;1.13;;
18505;SDS011;9382;53.242;10.438;2023-07-20T13:12:55;2.03;;;1.00;;
18505;SDS011;9382;53.242;10.438;2023-07-20T13:15:24;3.37;;;1.20;;
18505;SDS011;9382;53.242;10.438;2023-07-20T13:17:55;2.07;;;1.10;;
18505;SDS011;9382;53.242;10.438;2023-07-20T13:20:21;2.70;;;1.47;;
18505;SDS011;9382;53.242;10.438;2023-07-20T13:22:48;2.17;;;1.13;;
18505;SDS011;9382;53.242;10.438;2023-07-20T13:25:17;3.33;;;1.17;;
18505;SDS011;9382;53.242;10.438;2023-07-20T13:27:44;2.40;;;1.20;;
18505;SDS011;9382;53.242;10.438;2023-07-20T13:30:11;1.23;;;1.10;;
18505;SDS011;9382;53.242;10.438;2023-07-20T13:32:41;2.20;;;1.10;;
18505;SDS011;9382;53.242;10.438;2023-07-20T13:35:08;4.10;;;1.20;;
18505;SDS011;9382;53.242;10.438;2023-07-20T13:37:35;3.00;;;1.27;;
18505;SDS011;9382;53.242;10.438;2023-07-20T13:40:02;2.57;;;1.23;;
18505;SDS011;9382;53.242;10.438;2023-07-20T13:42:31;3.33;;;1.10;;
18505;SDS011;9382;53.242;10.438;2023-07-20T13:44:58;3.13;;;1.30;;
18505;SDS011;9382;53.242;10.438;2023-07-20T13:47:25;3.67;;;1.20;;
18505;SDS011;9382;53.242;10.438;2023-07-20T13:49:53;2.20;;;1.20;;
18505;SDS011;9382;53.242;10.438;2023-07-20T13:52:21;1.27;;;1.17;;
18505;SDS011;9382;53.242;10.438;2023-07-20T13:54:48;1.60;;;1.00;;
18505;SDS011;9382;53.242;10.438;2023-07-20T13:57:14;2.80;;;1.03;;
18505;SDS011;9382;53.242;10.438;2023-07-20T13:59:43;2.50;;;1.20;;
18505;SDS011;9382;53.242;10.438;2023-07-20T14:02:10;2.57;;;1.10;;
18505;SDS011;9382;53.242;10.438;2023-07-20T14:04:38;2.13;;;1.10;;
18505;SDS011;9382;53.242;10.438;2023-07-20T14:07:05;1.87;;;1.07;;
18505;SDS011;9382;53.242;10.438;2023-07-20T14:09:32;1.73;;;0.80;;
18505;SDS011;9382;53.242;10.438;2023-07-20T14:11:58;2.00;;;1.03;;
18505;SDS011;9382;53.242;10.438;2023-07-20T14:14:25;2.57;;;1.10;;
18505;SDS011;9382;53.242;10.438;2023-07-20T14:16:53;1.63;;;1.00;;
18505;SDS011;9382;53.242;10.438;2023-07-20T14:19:21;1.00;;;1.00;;
18505;SDS011;9382;53.242;10.438;2023-07-20T14:21:47;1.10;;;1.00;;
18505;SDS011;9382;53.242;10.438;2023-07-20T14:24:14;2.60;;;1.03;;
18505;SDS011;9382;53.242;10.438;2023-07-20T14:26:41;2.00;;;1.10;;
18505;SDS011;9382;53.242;10.438;2023-07-20T14:29:08;0.90;;;0.90;;
18505;SDS011;9382;53.242;10.438;2023-07-20T14:31:35;2.83;;;0.90;;
18505;SDS011;9382;53.242;10.438;2023-07-20T14:34:03;3.90;;;1.33;;
18505;SDS011;9382;53.242;10.438;2023-07-20T14:36:30;2.73;;;1.30;;
18505;SDS011;9382;53.242;10.438;2023-07-20T14:38:57;2.53;;;1.50;;
18505;SDS011;9382;53.242;10.438;2023-07-20T14:41:23;5.57;;;1.50;;
18505;SDS011;9382;53.242;10.438;2023-07-20T14:43:51;1.97;;;1.33;;
18505;SDS011;9382;53.242;10.438;2023-07-20T14:46:17;3.87;;;1.43;;
18505;SDS011;9382;53.242;10.438;2023-07-20T14:48:44;2.33;;;1.47;;
18505;SDS011;9382;53.242;10.438;2023-07-20T14:51:13;2.93;;;1.63;;
18505;SDS011;9382;53.242;10.438;2023-07-20T14:53:40;2.87;;;1.40;;